Plymouth Light

42° 00' 12"N, 70° 36' 04"W, Elevation 54 ft.
Eastern Time

Hourly observations for the last 72 hours

Date Time Temperature (°F) Humi-
dity

(%)
Wind
(mph)
Pressure Rain (in) Sun
(W/m2)
ET
(in)
Air Dew 6 Hour 1 Hr 3 Hr 6 Hr Day
Alt
(in)
Sea
Level

(mb)
Max Min
27 02:00 40.7 40.4 99 E 22 G 28 29.61 1002.7 0.01 0.01 0 0.000
27 01:00 40.7 40.4 40.9 40.1 99 E 11 G 14 29.74 1007.0 0.01 0.00 0 0.000
27 00:00 40.2 39.9 99 E 13 G 15 29.76 1008.0 0.02 0 0.025
26 23:00 40.4 40.1 99 E 11 G 13 29.82 1009.7 0.02 0 0.025
26 22:00 40.3 40.0 99 E 10 G 12 29.83 1010.2 0.01 0.02 0 0.025
26 21:00 40.6 40.1 98 E 12 G 15 29.86 1011.2 0.02 0 0.025
26 20:00 40.7 40.2 98 E 14 G 17 29.89 1012.2 0.01 0.02 0 0.025
26 19:00 40.7 40.2 42.0 40.6 98 ENE 11 G 15 29.90 1012.4 0.01 0 0.025
26 18:00 40.7 40.2 98 ENE 10 G 14 29.91 1013.0 0.01 0 0.025
26 17:00 40.9 40.4 98 ENE 7 G 10 29.92 1013.4 0.01 18 0.024
26 16:00 41.0 40.5 98 ENE 9 G 12 29.91 1012.7 0.01 67 0.023
26 15:00 40.9 40.4 98 NE 4 G 9 29.91 1012.9 0.01 60 0.021
26 14:00 41.2 40.4 97 NNE 5 G 8 29.93 1013.5 0.01 127 0.019
26 13:00 41.9 41.1 42.6 39.6 97 NE 5 G 7 29.94 1014.0 0.01 195 0.014
26 12:00 41.9 41.1 97 NE 6 G 9 29.95 1014.3 0.01 336 0.009
26 11:00 41.0 40.2 97 NNE 7 G 9 29.95 1014.4 0.01 283 0.005
26 10:00 40.3 39.8 98 NNE 6 G 11 29.95 1014.3 0.01 169 0.003
26 09:00 39.8 39.3 98 NNE 7 G 13 29.95 1014.2 0.01 174 0.001
26 08:00 39.8 39.3 98 NNE 5 G 9 29.93 1013.6 0.01 74 0.000
26 07:00 39.7 39.2 42.0 39.5 98 NNE 5 G 8 29.92 1013.1 0.01 0.01 0.01 23 0.000
26 06:00 39.7 39.2 98 NNE 5 G 9 29.91 1012.8 0.01 0 0.000
26 05:00 39.7 39.2 98 NNE 5 G 8 29.89 1012.4 0.01 0.01 0 0.000
26 04:00 39.9 39.4 98 ENE 3 G 5 29.89 1012.1 0.00 0 0.000
26 03:00 41.5 41.0 98 E 4 G 6 29.88 1012.0 0.00 0 0.000
26 02:00 41.2 40.4 97 E 8 G 9 29.89 1012.2 0.00 0 0.000
26 01:00 41.1 40.3 46.5 40.6 97 ENE 7 G 9 29.89 1012.1 0.02 0.02 0.00 0 0.000
26 00:00 41.3 40.5 97 ENE 8 G 11 29.88 1011.8 0.01 0.02 0 0.045
25 23:00 40.7 39.6 96 NE 2 G 5 29.89 1012.2 0.01 0.01 0 0.045
25 22:00 40.8 39.7 96 SE 3 G 7 29.89 1012.3 0.00 0 0.045
25 21:00 41.6 40.3 95 SE 4 G 9 29.89 1012.1 0.00 0 0.045
25 20:00 42.9 41.0 93 SSE 6 G 9 29.86 1011.2 0.00 0 0.045
25 19:00 46.5 44.0 48.0 43.9 91 SW 0 G 2 29.86 1011.2 0.00 0 0.045
25 18:00 45.7 43.2 91 SW 7 G 8 29.85 1010.9 0.00 0 0.045
25 17:00 46.1 43.6 91 SW 5 G 7 29.83 1010.4 0.00 14 0.044
25 16:00 45.8 42.7 89 SSW 5 G 9 29.83 1010.2 0.00 21 0.042
25 15:00 45.8 41.9 86 S 12 G 16 29.82 1009.7 0.00 144 0.037
25 14:00 45.4 42.6 90 SSE 3 G 7 29.82 1010.0 0.00 494 0.030
25 13:00 45.7 42.6 46.7 41.2 89 SSE 5 G 12 29.84 1010.5 0.00 522 0.022
25 12:00 46.3 43.2 89 S 5 G 8 29.86 1011.2 0.00 353 0.016
25 11:00 44.6 42.7 93 SSW 6 G 7 29.87 1011.7 0.00 341 0.010
25 10:00 43.9 42.6 95 SSW 6 G 7 29.87 1011.6 0.00 327 0.005
25 09:00 42.9 41.8 96 SW 4 G 7 29.88 1011.9 0.00 130 0.003
25 08:00 41.5 40.2 95 S 4 G 7 29.87 1011.6 0.00 62 0.002
25 07:00 41.9 40.6 43.3 41.9 95 SW 4 G 6 29.86 1011.4 0.00 23 0.002
25 06:00 42.2 40.9 95 SW 8 G 11 29.86 1011.1 0.00 0 0.002
25 05:00 42.8 40.9 93 SSW 5 G 8 29.89 1012.2 0.00 0 0.002
25 04:00 42.7 40.8 93 SSW 10 G 14 29.88 1011.8 0.00 0 0.002
25 03:00 42.8 40.6 92 SW 11 G 17 29.89 1012.1 0.00 0 0.001
25 02:00 42.4 40.2 92 SW 12 G 16 29.89 1012.3 0.00 0 0.000
25 01:00 42.3 40.7 42.7 40.7 94 SW 8 G 12 29.91 1012.9 0.00 0 0.000
25 00:00 41.7 40.4 95 SW 11 G 13 29.93 1013.6 0.00 0 0.106
24 23:00 41.3 39.7 94 SW 10 G 13 29.93 1013.6 0.00 0 0.106
24 22:00 40.9 38.8 92 SW 7 G 12 29.93 1013.6 0.00 0 0.106
24 21:00 41.3 38.9 91 SW 10 G 13 29.96 1014.5 0.00 0 0.105
24 20:00 41.2 38.8 91 SW 14 G 17 29.95 1014.1 0.00 0 0.104
24 19:00 41.8 38.8 52.6 41.8 89 SSW 12 G 16 29.94 1014.1 0.00 0 0.103
24 18:00 43.6 38.8 83 SSW 11 G 15 29.94 1013.9 0.00 0 0.102
24 17:00 46.5 38.7 74 SSW 11 G 16 29.93 1013.4 0.00 30 0.098
24 16:00 49.5 39.0 67 SW 15 G 22 29.93 1013.5 0.00 186 0.090
24 15:00 50.6 39.3 65 SSW 15 G 22 29.94 1013.9 0.00 359 0.078
24 14:00 50.5 38.8 64 SSW 14 G 20 29.95 1014.2 0.00 526 0.065
24 13:00 50.7 36.9 51.4 37.5 59 SSW 14 G 18 29.96 1014.5 0.00 592 0.051
24 12:00 50.7 37.7 61 SSW 13 G 17 29.99 1015.5 0.00 626 0.037
24 11:00 51.2 36.0 56 SW 4 G 11 30.01 1016.3 0.00 603 0.025
24 10:00 46.5 38.0 72 SW 5 G 10 30.02 1016.7 0.00 524 0.016
24 09:00 41.8 38.2 87 SW 9 G 12 30.03 1016.9 0.00 396 0.010
24 08:00 39.5 36.2 88 SW 6 G 12 30.03 1016.9 0.00 237 0.007
24 07:00 37.5 34.6 37.8 36.4 89 SW 12 G 16 30.02 1016.5 0.00 46 0.006
24 06:00 36.7 33.2 87 SW 9 G 15 30.01 1016.4 0.00 0 0.005
24 05:00 36.8 33.0 86 SW 8 G 12 30.02 1016.6 0.00 0 0.004
24 04:00 36.5 33.0 87 SW 8 G 13 30.02 1016.7 0.00 0 0.003
24 03:00 36.5 32.4 85 SW 8 G 11 30.03 1016.9 0.00 0 0.002

Data generated by WxSolution Version 1.9.1.1, Build 2017.11.27.